sensor_id;sensor_type;location;lat;lon;timestamp;P1;durP1;ratioP1;P2;durP2;ratioP2
75021;SDS011;63583;49.976;20.182;2023-09-30T00:01:17;11.20;;;6.97;;
75021;SDS011;63583;49.976;20.182;2023-09-30T00:03:44;9.27;;;6.22;;
75021;SDS011;63583;49.976;20.182;2023-09-30T00:06:10;10.93;;;6.95;;
75021;SDS011;63583;49.976;20.182;2023-09-30T00:08:36;10.63;;;7.80;;
75021;SDS011;63583;49.976;20.182;2023-09-30T00:11:05;9.00;;;6.25;;
75021;SDS011;63583;49.976;20.182;2023-09-30T00:13:31;10.52;;;7.07;;
75021;SDS011;63583;49.976;20.182;2023-09-30T00:15:57;12.02;;;7.15;;
75021;SDS011;63583;49.976;20.182;2023-09-30T00:18:23;11.68;;;7.07;;
75021;SDS011;63583;49.976;20.182;2023-09-30T00:20:49;10.45;;;6.47;;
75021;SDS011;63583;49.976;20.182;2023-09-30T00:23:15;12.77;;;7.03;;
75021;SDS011;63583;49.976;20.182;2023-09-30T00:25:40;11.65;;;7.35;;
75021;SDS011;63583;49.976;20.182;2023-09-30T00:28:07;13.43;;;6.80;;
75021;SDS011;63583;49.976;20.182;2023-09-30T00:30:33;10.30;;;6.70;;
75021;SDS011;63583;49.976;20.182;2023-09-30T00:32:59;13.52;;;6.93;;
75021;SDS011;63583;49.976;20.182;2023-09-30T00:35:25;11.27;;;6.65;;
75021;SDS011;63583;49.976;20.182;2023-09-30T00:37:51;10.15;;;6.57;;
75021;SDS011;63583;49.976;20.182;2023-09-30T00:40:16;10.60;;;7.32;;
75021;SDS011;63583;49.976;20.182;2023-09-30T00:42:42;9.95;;;6.68;;
75021;SDS011;63583;49.976;20.182;2023-09-30T00:45:08;12.32;;;6.70;;
75021;SDS011;63583;49.976;20.182;2023-09-30T00:47:35;10.05;;;6.60;;
75021;SDS011;63583;49.976;20.182;2023-09-30T00:50:02;9.65;;;6.57;;
75021;SDS011;63583;49.976;20.182;2023-09-30T00:52:33;10.15;;;6.53;;
75021;SDS011;63583;49.976;20.182;2023-09-30T00:55:00;8.38;;;5.90;;
75021;SDS011;63583;49.976;20.182;2023-09-30T00:57:26;9.75;;;6.40;;
75021;SDS011;63583;49.976;20.182;2023-09-30T00:59:53;9.82;;;5.93;;
75021;SDS011;63583;49.976;20.182;2023-09-30T01:02:20;9.48;;;6.22;;
75021;SDS011;63583;49.976;20.182;2023-09-30T01:04:48;9.38;;;6.30;;
75021;SDS011;63583;49.976;20.182;2023-09-30T01:07:14;9.80;;;6.63;;
75021;SDS011;63583;49.976;20.182;2023-09-30T01:09:40;9.93;;;6.40;;
75021;SDS011;63583;49.976;20.182;2023-09-30T01:12:06;9.57;;;6.53;;
75021;SDS011;63583;49.976;20.182;2023-09-30T01:14:33;11.50;;;6.45;;
75021;SDS011;63583;49.976;20.182;2023-09-30T01:17:00;7.93;;;6.00;;
75021;SDS011;63583;49.976;20.182;2023-09-30T01:19:27;9.27;;;6.43;;
75021;SDS011;63583;49.976;20.182;2023-09-30T01:21:54;9.02;;;6.00;;
75021;SDS011;63583;49.976;20.182;2023-09-30T01:24:24;11.15;;;6.85;;
75021;SDS011;63583;49.976;20.182;2023-09-30T01:26:51;7.47;;;6.07;;
75021;SDS011;63583;49.976;20.182;2023-09-30T01:29:16;10.80;;;6.85;;
75021;SDS011;63583;49.976;20.182;2023-09-30T01:31:42;13.52;;;6.65;;
75021;SDS011;63583;49.976;20.182;2023-09-30T01:34:08;9.93;;;6.10;;
75021;SDS011;63583;49.976;20.182;2023-09-30T01:36:36;12.38;;;7.13;;
75021;SDS011;63583;49.976;20.182;2023-09-30T01:39:01;10.63;;;6.60;;
75021;SDS011;63583;49.976;20.182;2023-09-30T01:41:28;10.80;;;6.53;;
75021;SDS011;63583;49.976;20.182;2023-09-30T01:43:54;12.73;;;6.70;;
75021;SDS011;63583;49.976;20.182;2023-09-30T01:46:19;10.60;;;6.93;;
75021;SDS011;63583;49.976;20.182;2023-09-30T01:48:45;10.00;;;6.75;;
75021;SDS011;63583;49.976;20.182;2023-09-30T01:51:11;12.38;;;6.78;;
75021;SDS011;63583;49.976;20.182;2023-09-30T01:53:36;8.75;;;6.70;;
75021;SDS011;63583;49.976;20.182;2023-09-30T01:56:02;10.25;;;6.50;;
75021;SDS011;63583;49.976;20.182;2023-09-30T01:58:28;9.73;;;6.10;;
75021;SDS011;63583;49.976;20.182;2023-09-30T02:01:00;9.65;;;6.78;;
75021;SDS011;63583;49.976;20.182;2023-09-30T02:03:27;8.60;;;6.25;;
75021;SDS011;63583;49.976;20.182;2023-09-30T02:05:55;11.55;;;6.90;;
75021;SDS011;63583;49.976;20.182;2023-09-30T02:08:21;10.85;;;6.65;;
75021;SDS011;63583;49.976;20.182;2023-09-30T02:10:48;8.60;;;6.35;;
75021;SDS011;63583;49.976;20.182;2023-09-30T02:13:13;10.18;;;6.30;;
75021;SDS011;63583;49.976;20.182;2023-09-30T02:15:39;10.50;;;6.35;;
75021;SDS011;63583;49.976;20.182;2023-09-30T02:18:06;11.15;;;6.25;;
75021;SDS011;63583;49.976;20.182;2023-09-30T02:20:32;8.98;;;6.20;;
75021;SDS011;63583;49.976;20.182;2023-09-30T02:22:59;7.53;;;5.57;;
75021;SDS011;63583;49.976;20.182;2023-09-30T02:25:25;10.68;;;6.53;;
75021;SDS011;63583;49.976;20.182;2023-09-30T02:27:50;8.50;;;5.95;;
75021;SDS011;63583;49.976;20.182;2023-09-30T02:30:16;8.15;;;5.97;;
75021;SDS011;63583;49.976;20.182;2023-09-30T02:32:42;13.65;;;6.30;;
75021;SDS011;63583;49.976;20.182;2023-09-30T02:35:11;9.52;;;6.50;;
75021;SDS011;63583;49.976;20.182;2023-09-30T02:37:37;9.10;;;6.10;;
75021;SDS011;63583;49.976;20.182;2023-09-30T02:40:04;9.02;;;5.80;;
75021;SDS011;63583;49.976;20.182;2023-09-30T02:42:31;10.27;;;5.55;;
75021;SDS011;63583;49.976;20.182;2023-09-30T02:45:00;10.07;;;6.30;;
75021;SDS011;63583;49.976;20.182;2023-09-30T02:47:28;8.80;;;5.97;;
75021;SDS011;63583;49.976;20.182;2023-09-30T02:49:56;10.93;;;6.32;;
75021;SDS011;63583;49.976;20.182;2023-09-30T02:52:22;9.90;;;5.55;;
75021;SDS011;63583;49.976;20.182;2023-09-30T02:54:48;7.38;;;5.40;;
75021;SDS011;63583;49.976;20.182;2023-09-30T02:57:14;8.43;;;5.82;;
75021;SDS011;63583;49.976;20.182;2023-09-30T02:59:41;8.38;;;6.22;;
75021;SDS011;63583;49.976;20.182;2023-09-30T03:02:07;7.75;;;5.60;;
75021;SDS011;63583;49.976;20.182;2023-09-30T03:04:33;9.65;;;5.63;;
75021;SDS011;63583;49.976;20.182;2023-09-30T03:06:59;8.50;;;5.93;;
75021;SDS011;63583;49.976;20.182;2023-09-30T03:09:25;9.07;;;5.97;;
75021;SDS011;63583;49.976;20.182;2023-09-30T03:11:51;8.27;;;5.57;;
75021;SDS011;63583;49.976;20.182;2023-09-30T03:14:17;9.13;;;5.90;;
75021;SDS011;63583;49.976;20.182;2023-09-30T03:16:43;7.30;;;5.55;;
75021;SDS011;63583;49.976;20.182;2023-09-30T03:19:10;8.65;;;5.20;;
75021;SDS011;63583;49.976;20.182;2023-09-30T03:21:37;6.97;;;5.60;;
75021;SDS011;63583;49.976;20.182;2023-09-30T03:24:03;9.75;;;5.80;;
75021;SDS011;63583;49.976;20.182;2023-09-30T03:26:30;9.85;;;6.13;;
75021;SDS011;63583;49.976;20.182;2023-09-30T03:28:56;8.63;;;5.93;;
75021;SDS011;63583;49.976;20.182;2023-09-30T03:31:22;8.02;;;5.93;;
75021;SDS011;63583;49.976;20.182;2023-09-30T03:33:51;10.05;;;5.82;;
75021;SDS011;63583;49.976;20.182;2023-09-30T03:36:20;8.82;;;5.70;;
75021;SDS011;63583;49.976;20.182;2023-09-30T03:38:53;9.23;;;5.90;;
75021;SDS011;63583;49.976;20.182;2023-09-30T03:41:22;9.95;;;5.30;;
75021;SDS011;63583;49.976;20.182;2023-09-30T03:43:48;9.90;;;5.63;;
75021;SDS011;63583;49.976;20.182;2023-09-30T03:46:14;9.45;;;5.82;;
75021;SDS011;63583;49.976;20.182;2023-09-30T03:48:41;9.65;;;5.13;;
75021;SDS011;63583;49.976;20.182;2023-09-30T03:51:10;9.05;;;5.57;;
75021;SDS011;63583;49.976;20.182;2023-09-30T03:53:49;9.43;;;5.57;;
75021;SDS011;63583;49.976;20.182;2023-09-30T03:56:15;10.35;;;5.97;;
75021;SDS011;63583;49.976;20.182;2023-09-30T03:58:41;7.70;;;5.50;;
75021;SDS011;63583;49.976;20.182;2023-09-30T04:01:08;8.10;;;5.72;;
75021;SDS011;63583;49.976;20.182;2023-09-30T04:03:42;8.20;;;5.07;;
75021;SDS011;63583;49.976;20.182;2023-09-30T04:06:08;9.63;;;5.57;;
75021;SDS011;63583;49.976;20.182;2023-09-30T04:08:35;15.73;;;6.47;;
75021;SDS011;63583;49.976;20.182;2023-09-30T04:11:01;9.82;;;6.20;;
75021;SDS011;63583;49.976;20.182;2023-09-30T04:13:28;8.73;;;5.68;;
75021;SDS011;63583;49.976;20.182;2023-09-30T04:15:55;8.55;;;5.82;;
75021;SDS011;63583;49.976;20.182;2023-09-30T04:18:21;10.02;;;5.57;;
75021;SDS011;63583;49.976;20.182;2023-09-30T04:20:48;8.95;;;5.60;;
75021;SDS011;63583;49.976;20.182;2023-09-30T04:23:14;8.00;;;5.65;;
75021;SDS011;63583;49.976;20.182;2023-09-30T04:25:40;10.70;;;6.07;;
75021;SDS011;63583;49.976;20.182;2023-09-30T04:28:08;7.97;;;5.68;;
75021;SDS011;63583;49.976;20.182;2023-09-30T04:30:33;8.38;;;5.65;;
75021;SDS011;63583;49.976;20.182;2023-09-30T04:32:59;6.65;;;5.32;;
75021;SDS011;63583;49.976;20.182;2023-09-30T04:35:26;8.70;;;5.32;;
75021;SDS011;63583;49.976;20.182;2023-09-30T04:37:52;8.57;;;5.63;;
75021;SDS011;63583;49.976;20.182;2023-09-30T04:40:18;8.48;;;5.60;;
75021;SDS011;63583;49.976;20.182;2023-09-30T04:42:47;8.50;;;5.43;;
75021;SDS011;63583;49.976;20.182;2023-09-30T04:45:13;8.00;;;5.70;;
75021;SDS011;63583;49.976;20.182;2023-09-30T04:47:42;8.75;;;5.53;;
75021;SDS011;63583;49.976;20.182;2023-09-30T04:50:09;7.40;;;5.07;;
75021;SDS011;63583;49.976;20.182;2023-09-30T04:52:37;7.63;;;5.20;;
75021;SDS011;63583;49.976;20.182;2023-09-30T04:55:04;7.20;;;5.22;;
75021;SDS011;63583;49.976;20.182;2023-09-30T04:57:30;10.93;;;5.50;;
75021;SDS011;63583;49.976;20.182;2023-09-30T04:59:57;10.38;;;5.72;;
75021;SDS011;63583;49.976;20.182;2023-09-30T05:02:24;10.93;;;5.95;;
75021;SDS011;63583;49.976;20.182;2023-09-30T05:04:50;9.55;;;4.90;;
75021;SDS011;63583;49.976;20.182;2023-09-30T05:07:16;8.73;;;5.50;;
75021;SDS011;63583;49.976;20.182;2023-09-30T05:09:41;10.05;;;5.43;;
75021;SDS011;63583;49.976;20.182;2023-09-30T05:12:08;13.32;;;8.43;;
75021;SDS011;63583;49.976;20.182;2023-09-30T05:14:35;10.98;;;7.90;;
75021;SDS011;63583;49.976;20.182;2023-09-30T05:17:02;11.63;;;7.55;;
75021;SDS011;63583;49.976;20.182;2023-09-30T05:19:30;12.65;;;7.40;;
75021;SDS011;63583;49.976;20.182;2023-09-30T05:21:57;13.20;;;8.93;;
75021;SDS011;63583;49.976;20.182;2023-09-30T05:24:23;15.38;;;8.15;;
75021;SDS011;63583;49.976;20.182;2023-09-30T05:26:49;11.32;;;7.50;;
75021;SDS011;63583;49.976;20.182;2023-09-30T05:29:15;10.93;;;7.60;;
75021;SDS011;63583;49.976;20.182;2023-09-30T05:31:42;12.07;;;6.97;;
75021;SDS011;63583;49.976;20.182;2023-09-30T05:34:07;12.63;;;7.25;;
75021;SDS011;63583;49.976;20.182;2023-09-30T05:36:33;10.77;;;7.82;;
75021;SDS011;63583;49.976;20.182;2023-09-30T05:38:59;14.27;;;7.53;;
75021;SDS011;63583;49.976;20.182;2023-09-30T05:41:25;10.85;;;7.05;;
75021;SDS011;63583;49.976;20.182;2023-09-30T05:43:52;13.30;;;7.03;;
75021;SDS011;63583;49.976;20.182;2023-09-30T05:46:19;8.25;;;6.38;;
75021;SDS011;63583;49.976;20.182;2023-09-30T05:48:44;8.77;;;5.65;;
75021;SDS011;63583;49.976;20.182;2023-09-30T05:51:10;10.00;;;6.13;;
75021;SDS011;63583;49.976;20.182;2023-09-30T05:53:40;9.32;;;6.35;;
75021;SDS011;63583;49.976;20.182;2023-09-30T05:56:07;10.27;;;6.05;;
75021;SDS011;63583;49.976;20.182;2023-09-30T05:58:33;9.50;;;5.90;;
75021;SDS011;63583;49.976;20.182;2023-09-30T06:00:59;9.98;;;5.57;;
75021;SDS011;63583;49.976;20.182;2023-09-30T06:03:31;7.93;;;5.53;;
75021;SDS011;63583;49.976;20.182;2023-09-30T06:05:58;10.27;;;6.07;;
75021;SDS011;63583;49.976;20.182;2023-09-30T06:08:25;8.00;;;5.53;;
75021;SDS011;63583;49.976;20.182;2023-09-30T06:10:51;8.98;;;5.57;;
75021;SDS011;63583;49.976;20.182;2023-09-30T06:13:16;8.88;;;5.68;;
75021;SDS011;63583;49.976;20.182;2023-09-30T06:15:42;8.15;;;5.68;;
75021;SDS011;63583;49.976;20.182;2023-09-30T06:18:09;11.18;;;5.85;;
75021;SDS011;63583;49.976;20.182;2023-09-30T06:20:38;9.30;;;5.65;;
75021;SDS011;63583;49.976;20.182;2023-09-30T06:23:04;9.48;;;5.93;;
75021;SDS011;63583;49.976;20.182;2023-09-30T06:25:30;9.50;;;5.32;;
75021;SDS011;63583;49.976;20.182;2023-09-30T06:27:58;8.68;;;5.60;;
75021;SDS011;63583;49.976;20.182;2023-09-30T06:30:24;10.85;;;5.63;;
75021;SDS011;63583;49.976;20.182;2023-09-30T06:32:59;10.57;;;5.07;;
75021;SDS011;63583;49.976;20.182;2023-09-30T06:35:26;11.82;;;6.53;;
75021;SDS011;63583;49.976;20.182;2023-09-30T06:37:52;9.90;;;6.35;;
75021;SDS011;63583;49.976;20.182;2023-09-30T06:40:18;8.38;;;5.78;;
75021;SDS011;63583;49.976;20.182;2023-09-30T06:42:44;10.95;;;6.65;;
75021;SDS011;63583;49.976;20.182;2023-09-30T06:45:10;11.18;;;6.28;;
75021;SDS011;63583;49.976;20.182;2023-09-30T06:47:37;10.15;;;6.32;;
75021;SDS011;63583;49.976;20.182;2023-09-30T06:50:09;8.63;;;6.45;;
75021;SDS011;63583;49.976;20.182;2023-09-30T06:52:41;9.50;;;6.68;;
75021;SDS011;63583;49.976;20.182;2023-09-30T06:55:08;8.25;;;5.55;;
75021;SDS011;63583;49.976;20.182;2023-09-30T06:57:34;10.10;;;5.82;;
75021;SDS011;63583;49.976;20.182;2023-09-30T07:00:05;9.02;;;6.97;;
75021;SDS011;63583;49.976;20.182;2023-09-30T07:02:34;8.95;;;5.95;;
75021;SDS011;63583;49.976;20.182;2023-09-30T07:05:00;9.73;;;6.15;;
75021;SDS011;63583;49.976;20.182;2023-09-30T07:07:25;11.10;;;6.72;;
75021;SDS011;63583;49.976;20.182;2023-09-30T07:09:51;11.02;;;6.10;;
75021;SDS011;63583;49.976;20.182;2023-09-30T07:12:18;13.77;;;9.75;;
75021;SDS011;63583;49.976;20.182;2023-09-30T07:14:46;28.05;;;15.68;;
75021;SDS011;63583;49.976;20.182;2023-09-30T07:17:11;31.27;;;17.60;;
75021;SDS011;63583;49.976;20.182;2023-09-30T07:19:37;65.15;;;31.58;;
75021;SDS011;63583;49.976;20.182;2023-09-30T07:22:03;35.25;;;19.63;;
75021;SDS011;63583;49.976;20.182;2023-09-30T07:24:29;41.80;;;22.90;;
75021;SDS011;63583;49.976;20.182;2023-09-30T07:26:56;32.97;;;18.55;;
75021;SDS011;63583;49.976;20.182;2023-09-30T07:29:22;20.40;;;12.85;;
75021;SDS011;63583;49.976;20.182;2023-09-30T07:31:48;16.30;;;10.05;;
75021;SDS011;63583;49.976;20.182;2023-09-30T07:34:16;18.58;;;10.63;;
75021;SDS011;63583;49.976;20.182;2023-09-30T07:36:42;13.68;;;9.15;;
75021;SDS011;63583;49.976;20.182;2023-09-30T07:39:08;11.45;;;7.20;;
75021;SDS011;63583;49.976;20.182;2023-09-30T07:41:34;11.13;;;7.30;;
75021;SDS011;63583;49.976;20.182;2023-09-30T07:44:02;10.27;;;7.28;;
75021;SDS011;63583;49.976;20.182;2023-09-30T07:46:28;11.80;;;6.45;;
75021;SDS011;63583;49.976;20.182;2023-09-30T07:48:54;13.48;;;6.80;;
75021;SDS011;63583;49.976;20.182;2023-09-30T07:51:20;9.23;;;6.65;;
75021;SDS011;63583;49.976;20.182;2023-09-30T07:53:47;11.88;;;7.53;;
75021;SDS011;63583;49.976;20.182;2023-09-30T07:56:13;13.00;;;7.63;;
75021;SDS011;63583;49.976;20.182;2023-09-30T07:58:39;14.38;;;8.13;;
75021;SDS011;63583;49.976;20.182;2023-09-30T08:01:05;11.75;;;7.82;;
75021;SDS011;63583;49.976;20.182;2023-09-30T08:03:33;12.43;;;8.00;;
75021;SDS011;63583;49.976;20.182;2023-09-30T08:06:00;18.85;;;11.75;;
75021;SDS011;63583;49.976;20.182;2023-09-30T08:08:26;55.83;;;31.23;;
75021;SDS011;63583;49.976;20.182;2023-09-30T08:10:52;47.85;;;28.58;;
75021;SDS011;63583;49.976;20.182;2023-09-30T08:13:24;29.35;;;15.75;;
75021;SDS011;63583;49.976;20.182;2023-09-30T08:18:16;16.75;;;11.07;;
75021;SDS011;63583;49.976;20.182;2023-09-30T08:20:43;14.85;;;9.52;;
75021;SDS011;63583;49.976;20.182;2023-09-30T08:23:09;13.75;;;8.60;;
75021;SDS011;63583;49.976;20.182;2023-09-30T08:25:34;14.00;;;9.35;;
75021;SDS011;63583;49.976;20.182;2023-09-30T08:28:00;22.35;;;13.98;;
75021;SDS011;63583;49.976;20.182;2023-09-30T08:30:26;25.35;;;13.32;;
75021;SDS011;63583;49.976;20.182;2023-09-30T08:32:53;27.27;;;14.40;;
75021;SDS011;63583;49.976;20.182;2023-09-30T08:35:19;15.88;;;11.32;;
75021;SDS011;63583;49.976;20.182;2023-09-30T08:37:45;13.23;;;8.57;;
75021;SDS011;63583;49.976;20.182;2023-09-30T08:40:10;12.00;;;8.95;;
75021;SDS011;63583;49.976;20.182;2023-09-30T08:42:38;14.52;;;9.20;;
75021;SDS011;63583;49.976;20.182;2023-09-30T08:45:06;12.00;;;8.98;;
75021;SDS011;63583;49.976;20.182;2023-09-30T08:47:35;14.18;;;8.95;;
75021;SDS011;63583;49.976;20.182;2023-09-30T08:50:03;16.80;;;10.63;;
75021;SDS011;63583;49.976;20.182;2023-09-30T08:52:34;14.35;;;9.82;;
75021;SDS011;63583;49.976;20.182;2023-09-30T08:55:01;16.27;;;9.77;;
75021;SDS011;63583;49.976;20.182;2023-09-30T08:57:27;13.35;;;8.98;;
75021;SDS011;63583;49.976;20.182;2023-09-30T08:59:53;16.67;;;10.95;;
75021;SDS011;63583;49.976;20.182;2023-09-30T09:02:19;18.10;;;11.45;;
75021;SDS011;63583;49.976;20.182;2023-09-30T09:04:45;14.13;;;9.98;;
75021;SDS011;63583;49.976;20.182;2023-09-30T09:07:12;14.90;;;9.75;;
75021;SDS011;63583;49.976;20.182;2023-09-30T09:09:38;12.88;;;8.88;;
75021;SDS011;63583;49.976;20.182;2023-09-30T09:12:04;20.08;;;9.30;;
75021;SDS011;63583;49.976;20.182;2023-09-30T09:14:40;16.45;;;9.98;;
75021;SDS011;63583;49.976;20.182;2023-09-30T09:17:07;17.10;;;10.40;;
75021;SDS011;63583;49.976;20.182;2023-09-30T09:19:34;14.65;;;9.50;;
75021;SDS011;63583;49.976;20.182;2023-09-30T09:22:00;17.90;;;9.70;;
75021;SDS011;63583;49.976;20.182;2023-09-30T09:24:33;14.48;;;9.40;;
75021;SDS011;63583;49.976;20.182;2023-09-30T09:27:08;15.48;;;9.18;;
75021;SDS011;63583;49.976;20.182;2023-09-30T09:29:36;14.55;;;8.63;;
75021;SDS011;63583;49.976;20.182;2023-09-30T09:32:13;13.52;;;9.27;;
75021;SDS011;63583;49.976;20.182;2023-09-30T09:34:44;15.68;;;9.48;;
75021;SDS011;63583;49.976;20.182;2023-09-30T09:37:17;13.48;;;9.32;;
75021;SDS011;63583;49.976;20.182;2023-09-30T09:39:53;12.95;;;9.25;;
75021;SDS011;63583;49.976;20.182;2023-09-30T09:42:26;13.07;;;8.93;;
75021;SDS011;63583;49.976;20.182;2023-09-30T09:44:56;13.02;;;9.68;;
75021;SDS011;63583;49.976;20.182;2023-09-30T09:47:23;14.23;;;10.30;;
75021;SDS011;63583;49.976;20.182;2023-09-30T09:49:50;13.90;;;9.60;;
75021;SDS011;63583;49.976;20.182;2023-09-30T09:52:18;14.27;;;9.80;;
75021;SDS011;63583;49.976;20.182;2023-09-30T09:54:44;15.18;;;10.25;;
75021;SDS011;63583;49.976;20.182;2023-09-30T09:57:12;18.27;;;10.45;;
75021;SDS011;63583;49.976;20.182;2023-09-30T09:59:41;18.80;;;11.65;;
75021;SDS011;63583;49.976;20.182;2023-09-30T10:02:11;18.10;;;11.48;;
75021;SDS011;63583;49.976;20.182;2023-09-30T10:04:40;15.35;;;10.45;;
75021;SDS011;63583;49.976;20.182;2023-09-30T10:07:09;14.30;;;10.32;;
75021;SDS011;63583;49.976;20.182;2023-09-30T10:09:39;15.65;;;10.25;;
75021;SDS011;63583;49.976;20.182;2023-09-30T10:12:09;14.63;;;9.30;;
75021;SDS011;63583;49.976;20.182;2023-09-30T10:14:37;17.05;;;10.27;;
75021;SDS011;63583;49.976;20.182;2023-09-30T10:17:03;14.00;;;9.35;;
75021;SDS011;63583;49.976;20.182;2023-09-30T10:19:29;16.77;;;10.82;;
75021;SDS011;63583;49.976;20.182;2023-09-30T10:24:41;17.55;;;11.85;;
75021;SDS011;63583;49.976;20.182;2023-09-30T10:35:41;45.05;;;25.80;;
75021;SDS011;63583;49.976;20.182;2023-09-30T10:40:49;38.67;;;20.50;;
75021;SDS011;63583;49.976;20.182;2023-09-30T10:43:31;32.72;;;17.15;;
75021;SDS011;63583;49.976;20.182;2023-09-30T10:46:29;24.25;;;13.30;;
75021;SDS011;63583;49.976;20.182;2023-09-30T10:48:53;19.58;;;11.60;;
75021;SDS011;63583;49.976;20.182;2023-09-30T10:51:19;20.38;;;11.52;;
75021;SDS011;63583;49.976;20.182;2023-09-30T10:53:52;14.82;;;10.13;;
75021;SDS011;63583;49.976;20.182;2023-09-30T10:56:22;18.33;;;11.10;;
75021;SDS011;63583;49.976;20.182;2023-09-30T10:58:49;14.90;;;10.18;;
75021;SDS011;63583;49.976;20.182;2023-09-30T11:01:16;14.85;;;9.88;;
75021;SDS011;63583;49.976;20.182;2023-09-30T11:03:43;15.52;;;10.98;;
75021;SDS011;63583;49.976;20.182;2023-09-30T11:06:13;16.40;;;10.77;;
75021;SDS011;63583;49.976;20.182;2023-09-30T11:08:50;15.95;;;10.88;;
75021;SDS011;63583;49.976;20.182;2023-09-30T11:11:17;21.08;;;13.73;;
75021;SDS011;63583;49.976;20.182;2023-09-30T11:13:44;19.80;;;13.13;;
75021;SDS011;63583;49.976;20.182;2023-09-30T11:16:10;23.90;;;13.60;;
75021;SDS011;63583;49.976;20.182;2023-09-30T11:18:36;18.40;;;13.00;;
75021;SDS011;63583;49.976;20.182;2023-09-30T11:21:04;16.52;;;11.05;;
75021;SDS011;63583;49.976;20.182;2023-09-30T11:23:31;17.52;;;12.05;;
75021;SDS011;63583;49.976;20.182;2023-09-30T11:25:58;17.25;;;11.35;;
75021;SDS011;63583;49.976;20.182;2023-09-30T11:28:24;18.35;;;12.13;;
75021;SDS011;63583;49.976;20.182;2023-09-30T11:33:25;23.33;;;11.38;;
75021;SDS011;63583;49.976;20.182;2023-09-30T11:38:27;15.35;;;9.82;;
75021;SDS011;63583;49.976;20.182;2023-09-30T11:41:03;12.43;;;8.68;;
75021;SDS011;63583;49.976;20.182;2023-09-30T11:43:32;7.68;;;5.28;;
75021;SDS011;63583;49.976;20.182;2023-09-30T11:48:31;9.07;;;5.03;;
75021;SDS011;63583;49.976;20.182;2023-09-30T11:50:58;9.98;;;5.45;;
75021;SDS011;63583;49.976;20.182;2023-09-30T11:53:26;10.60;;;5.35;;
75021;SDS011;63583;49.976;20.182;2023-09-30T11:55:51;7.00;;;4.57;;
75021;SDS011;63583;49.976;20.182;2023-09-30T11:58:21;7.22;;;4.38;;
75021;SDS011;63583;49.976;20.182;2023-09-30T12:00:47;6.80;;;4.68;;
75021;SDS011;63583;49.976;20.182;2023-09-30T12:03:16;6.65;;;3.83;;
75021;SDS011;63583;49.976;20.182;2023-09-30T12:05:42;6.80;;;4.00;;
75021;SDS011;63583;49.976;20.182;2023-09-30T12:08:08;6.05;;;3.75;;
75021;SDS011;63583;49.976;20.182;2023-09-30T12:10:34;7.75;;;4.35;;
75021;SDS011;63583;49.976;20.182;2023-09-30T12:13:00;8.52;;;4.50;;
75021;SDS011;63583;49.976;20.182;2023-09-30T12:15:25;5.38;;;3.78;;
75021;SDS011;63583;49.976;20.182;2023-09-30T12:17:52;6.75;;;3.88;;
75021;SDS011;63583;49.976;20.182;2023-09-30T12:20:18;4.93;;;3.38;;
75021;SDS011;63583;49.976;20.182;2023-09-30T12:22:44;4.75;;;3.10;;
75021;SDS011;63583;49.976;20.182;2023-09-30T12:25:10;4.85;;;3.20;;
75021;SDS011;63583;49.976;20.182;2023-09-30T12:27:36;4.07;;;2.95;;
75021;SDS011;63583;49.976;20.182;2023-09-30T12:30:05;4.28;;;2.97;;
75021;SDS011;63583;49.976;20.182;2023-09-30T12:32:32;4.53;;;2.65;;
75021;SDS011;63583;49.976;20.182;2023-09-30T12:34:58;3.70;;;2.78;;
75021;SDS011;63583;49.976;20.182;2023-09-30T12:37:24;3.67;;;2.90;;
75021;SDS011;63583;49.976;20.182;2023-09-30T12:39:49;5.63;;;3.33;;
75021;SDS011;63583;49.976;20.182;2023-09-30T12:42:15;5.13;;;3.20;;
75021;SDS011;63583;49.976;20.182;2023-09-30T12:44:41;4.95;;;3.13;;
75021;SDS011;63583;49.976;20.182;2023-09-30T12:47:07;5.65;;;3.58;;
75021;SDS011;63583;49.976;20.182;2023-09-30T12:49:36;5.18;;;4.18;;
75021;SDS011;63583;49.976;20.182;2023-09-30T12:52:03;6.38;;;4.22;;
75021;SDS011;63583;49.976;20.182;2023-09-30T12:54:29;7.25;;;4.53;;
75021;SDS011;63583;49.976;20.182;2023-09-30T12:56:54;6.47;;;4.53;;
75021;SDS011;63583;49.976;20.182;2023-09-30T12:59:21;6.43;;;4.43;;
75021;SDS011;63583;49.976;20.182;2023-09-30T13:01:51;7.25;;;5.55;;
75021;SDS011;63583;49.976;20.182;2023-09-30T13:04:17;7.05;;;5.15;;
75021;SDS011;63583;49.976;20.182;2023-09-30T13:06:44;8.10;;;5.70;;
75021;SDS011;63583;49.976;20.182;2023-09-30T13:09:10;8.85;;;5.93;;
75021;SDS011;63583;49.976;20.182;2023-09-30T13:11:37;9.00;;;6.47;;
75021;SDS011;63583;49.976;20.182;2023-09-30T13:14:03;8.40;;;6.22;;
75021;SDS011;63583;49.976;20.182;2023-09-30T13:16:29;9.25;;;6.63;;
75021;SDS011;63583;49.976;20.182;2023-09-30T13:18:55;9.48;;;7.15;;
75021;SDS011;63583;49.976;20.182;2023-09-30T13:21:21;10.65;;;7.47;;
75021;SDS011;63583;49.976;20.182;2023-09-30T13:23:47;13.05;;;8.27;;
75021;SDS011;63583;49.976;20.182;2023-09-30T13:26:13;12.82;;;8.45;;
75021;SDS011;63583;49.976;20.182;2023-09-30T13:28:38;12.85;;;8.43;;
75021;SDS011;63583;49.976;20.182;2023-09-30T13:31:05;12.00;;;8.48;;
75021;SDS011;63583;49.976;20.182;2023-09-30T13:33:30;13.05;;;9.18;;
75021;SDS011;63583;49.976;20.182;2023-09-30T13:35:57;13.30;;;9.50;;
75021;SDS011;63583;49.976;20.182;2023-09-30T13:38:23;14.18;;;9.65;;
75021;SDS011;63583;49.976;20.182;2023-09-30T13:40:49;14.70;;;9.85;;
75021;SDS011;63583;49.976;20.182;2023-09-30T13:43:15;15.10;;;10.20;;
75021;SDS011;63583;49.976;20.182;2023-09-30T13:45:40;16.00;;;10.80;;
75021;SDS011;63583;49.976;20.182;2023-09-30T13:48:06;15.63;;;10.77;;
75021;SDS011;63583;49.976;20.182;2023-09-30T13:50:32;14.80;;;11.25;;
75021;SDS011;63583;49.976;20.182;2023-09-30T13:52:58;19.48;;;12.13;;
75021;SDS011;63583;49.976;20.182;2023-09-30T13:55:26;19.30;;;12.75;;
75021;SDS011;63583;49.976;20.182;2023-09-30T13:57:52;46.15;;;25.85;;
75021;SDS011;63583;49.976;20.182;2023-09-30T14:00:18;41.03;;;24.40;;
75021;SDS011;63583;49.976;20.182;2023-09-30T14:02:44;27.63;;;17.00;;
75021;SDS011;63583;49.976;20.182;2023-09-30T14:05:09;32.60;;;19.83;;
75021;SDS011;63583;49.976;20.182;2023-09-30T14:07:37;21.08;;;14.15;;
75021;SDS011;63583;49.976;20.182;2023-09-30T14:10:03;22.48;;;15.43;;
75021;SDS011;63583;49.976;20.182;2023-09-30T14:12:30;20.65;;;14.35;;
75021;SDS011;63583;49.976;20.182;2023-09-30T14:14:56;19.75;;;13.85;;
75021;SDS011;63583;49.976;20.182;2023-09-30T14:17:22;18.92;;;12.68;;
75021;SDS011;63583;49.976;20.182;2023-09-30T14:19:48;19.30;;;13.30;;
75021;SDS011;63583;49.976;20.182;2023-09-30T14:22:15;19.90;;;13.25;;
75021;SDS011;63583;49.976;20.182;2023-09-30T14:24:40;20.35;;;12.48;;
75021;SDS011;63583;49.976;20.182;2023-09-30T14:27:06;15.98;;;10.25;;
75021;SDS011;63583;49.976;20.182;2023-09-30T14:29:32;15.57;;;10.95;;
75021;SDS011;63583;49.976;20.182;2023-09-30T14:31:58;14.98;;;9.35;;
75021;SDS011;63583;49.976;20.182;2023-09-30T14:34:24;14.15;;;9.68;;
75021;SDS011;63583;49.976;20.182;2023-09-30T14:36:51;14.18;;;8.88;;
75021;SDS011;63583;49.976;20.182;2023-09-30T14:39:17;15.48;;;9.55;;
75021;SDS011;63583;49.976;20.182;2023-09-30T14:41:43;13.88;;;8.07;;
75021;SDS011;63583;49.976;20.182;2023-09-30T14:44:09;14.13;;;7.90;;
75021;SDS011;63583;49.976;20.182;2023-09-30T14:46:40;14.18;;;7.60;;